Time;durP1;ratioP1;P1;durP2;ratioP2;P2;SDS_P1;SDS_P2;PMS_P1;PMS_P2;Temp;Humidity;BMP_temperature;BMP_pressure;BME280_temperature;BME280_humidity;BME280_pressure;Samples;Min_cycle;Max_cycle;Signal;HPM_P1;HPM_P2
2023/07/16 00:01:44;;;;;;;3.70;0.50;;;;;;;18.81;100.00;95742.91;5046636;28;24435;-77
2023/07/16 00:04:11;;;;;;;1.10;0.40;;;;;;;18.84;100.00;95751.31;5048571;28;24473;-78
2023/07/16 00:06:37;;;;;;;0.45;0.35;;;;;;;18.99;100.00;95745.56;5042408;28;24802;-77
2023/07/16 00:09:04;;;;;;;0.80;0.40;;;;;;;19.06;100.00;95741.38;5040272;28;24973;-78
2023/07/16 00:11:30;;;;;;;0.77;0.30;;;;;;;19.17;100.00;95728.03;5035569;28;24484;-77
2023/07/16 00:13:58;;;;;;;0.98;0.45;;;;;;;19.11;100.00;95710.25;5048381;28;24451;-76
2023/07/16 00:16:24;;;;;;;0.50;0.32;;;;;;;19.08;100.00;95708.72;5040833;28;24435;-77
2023/07/16 00:18:51;;;;;;;0.75;0.43;;;;;;;19.09;100.00;95726.13;5047313;28;24438;-77
2023/07/16 00:21:17;;;;;;;0.50;0.40;;;;;;;19.06;100.00;95738.75;5048051;28;24505;-77
2023/07/16 00:23:44;;;;;;;1.08;0.50;;;;;;;18.96;100.00;95745.84;5039085;28;24443;-77
2023/07/16 00:26:10;;;;;;;1.58;0.60;;;;;;;18.71;100.00;95735.09;5048327;28;24442;-77
2023/07/16 00:28:36;;;;;;;1.67;0.60;;;;;;;18.44;100.00;95740.31;5039735;28;24970;-77
2023/07/16 00:31:04;;;;;;;1.00;0.57;;;;;;;18.36;100.00;95734.00;5048897;28;24435;-77
2023/07/16 00:33:31;;;;;;;0.93;0.63;;;;;;;18.30;100.00;95745.06;5049980;28;24467;-77
2023/07/16 00:35:57;;;;;;;1.00;0.70;;;;;;;18.51;100.00;95741.41;5049747;28;24435;-78
2023/07/16 00:38:24;;;;;;;0.90;0.77;;;;;;;18.49;100.00;95741.53;5046275;28;24443;-77
2023/07/16 00:40:50;;;;;;;0.93;0.68;;;;;;;18.31;100.00;95735.41;5049607;28;24439;-78
2023/07/16 00:43:17;;;;;;;0.88;0.73;;;;;;;18.08;100.00;95729.69;5050613;28;24443;-78
2023/07/16 00:45:46;;;;;;;1.23;0.63;;;;;;;18.11;100.00;95738.09;5040319;28;24529;-77
2023/07/16 00:48:14;;;;;;;1.65;0.95;;;;;;;18.06;100.00;95763.91;5046657;28;24459;-77
2023/07/16 00:50:41;;;;;;;0.90;0.70;;;;;;;17.94;100.00;95766.84;5045473;28;24443;-77
2023/07/16 00:53:09;;;;;;;1.30;0.87;;;;;;;17.91;100.00;95760.09;5037188;28;24482;-78
2023/07/16 00:55:36;;;;;;;1.80;0.80;;;;;;;17.85;100.00;95758.03;5048866;28;24798;-77
2023/07/16 00:58:05;;;;;;;1.55;0.75;;;;;;;17.77;100.00;95768.41;5049014;28;24481;-78
2023/07/16 01:00:32;;;;;;;1.42;0.73;;;;;;;17.69;100.00;95783.94;5043780;28;24433;-77
2023/07/16 01:02:59;;;;;;;1.10;0.82;;;;;;;17.85;100.00;95785.06;5046161;28;24440;-77
2023/07/16 01:05:33;;;;;;;1.13;1.00;;;;;;;17.96;100.00;95781.44;5044681;28;25002;-77
2023/07/16 01:08:05;;;;;;;1.33;1.08;;;;;;;18.03;100.00;95772.06;5046211;28;24443;-77
2023/07/16 01:10:32;;;;;;;1.63;1.15;;;;;;;18.12;100.00;95765.94;5044713;28;24500;-77
2023/07/16 01:12:59;;;;;;;3.70;1.05;;;;;;;18.19;100.00;95763.59;5041149;28;24460;-77
2023/07/16 01:15:25;;;;;;;1.50;0.80;;;;;;;18.14;100.00;95761.41;5048834;28;24442;-78
2023/07/16 01:17:52;;;;;;;1.15;0.80;;;;;;;18.32;100.00;95785.09;5040940;28;24438;-77
2023/07/16 01:20:18;;;;;;;1.70;0.82;;;;;;;18.42;100.00;95785.03;5040265;28;24433;-77
2023/07/16 01:23:16;;;;;;;1.65;0.95;;;;;;;18.48;100.00;95778.41;5044616;28;24469;-77
2023/07/16 01:26:07;;;;;;;2.40;0.90;;;;;;;18.48;100.00;95786.25;5045350;28;24443;-78
2023/07/16 01:28:50;;;;;;;3.78;0.80;;;;;;;18.51;100.00;95789.41;5043223;28;24434;-77
2023/07/16 01:31:18;;;;;;;0.98;0.77;;;;;;;18.49;100.00;95801.84;5042487;28;24443;-78
2023/07/16 01:33:46;;;;;;;2.15;0.82;;;;;;;18.31;100.00;95809.63;5041614;28;24463;-78
2023/07/16 01:36:13;;;;;;;1.10;0.87;;;;;;;18.32;100.00;95800.00;5044757;28;24472;-77
2023/07/16 01:38:40;;;;;;;1.65;1.10;;;;;;;18.23;100.00;95799.03;5047683;28;24447;-77
2023/07/16 01:41:06;;;;;;;2.03;0.98;;;;;;;18.27;100.00;95797.78;5041580;28;24447;-77
2023/07/16 01:43:33;;;;;;;2.22;1.00;;;;;;;18.61;100.00;95791.97;5047100;28;24837;-77
2023/07/16 01:45:59;;;;;;;3.50;1.00;;;;;;;18.44;100.00;95805.88;5048494;28;24435;-77
2023/07/16 01:48:31;;;;;;;4.55;1.00;;;;;;;17.96;100.00;95831.25;5052357;28;24466;-77
2023/07/16 01:50:57;;;;;;;1.55;0.82;;;;;;;17.92;100.00;95829.88;5040720;28;24436;-77
2023/07/16 01:53:24;;;;;;;3.90;1.60;;;;;;;17.86;100.00;95814.69;5047451;28;24466;-77
2023/07/16 01:55:50;;;;;;;1.85;0.88;;;;;;;17.83;100.00;95796.63;5044552;28;24431;-78
2023/07/16 01:58:17;;;;;;;1.23;0.80;;;;;;;17.87;100.00;95792.75;5051552;28;24435;-77
2023/07/16 02:00:43;;;;;;;0.80;0.75;;;;;;;17.93;100.00;95812.34;5051503;28;24489;-77
2023/07/16 02:03:10;;;;;;;1.05;0.88;;;;;;;17.97;100.00;95806.69;5048287;28;24512;-77
2023/07/16 02:05:37;;;;;;;1.23;0.80;;;;;;;18.08;100.00;95808.31;5046110;28;24493;-77
2023/07/16 02:08:04;;;;;;;2.05;0.73;;;;;;;18.06;100.00;95818.13;5043387;28;24462;-77
2023/07/16 02:10:31;;;;;;;2.10;0.90;;;;;;;17.78;100.00;95811.97;5051465;28;24507;-77
2023/07/16 02:12:57;;;;;;;1.70;0.90;;;;;;;17.88;100.00;95810.97;5045021;28;24534;-77
2023/07/16 02:15:24;;;;;;;3.63;1.00;;;;;;;17.95;100.00;95813.88;5047767;28;24427;-78
2023/07/16 02:17:51;;;;;;;1.10;0.90;;;;;;;17.87;100.00;95821.59;5050906;28;24439;-77
2023/07/16 02:20:18;;;;;;;1.10;0.90;;;;;;;17.86;100.00;95831.25;5048771;28;24439;-78
2023/07/16 02:22:46;;;;;;;1.33;0.90;;;;;;;18.06;100.00;95841.72;5046310;28;24446;-77
2023/07/16 02:25:12;;;;;;;2.43;0.90;;;;;;;17.93;100.00;95856.91;5042897;28;24435;-77
2023/07/16 02:27:38;;;;;;;1.27;1.17;;;;;;;17.87;100.00;95866.13;5043667;28;24431;-78
2023/07/16 02:30:06;;;;;;;1.10;0.80;;;;;;;17.94;100.00;95863.78;5044257;28;24547;-77
2023/07/16 02:32:33;;;;;;;3.55;1.13;;;;;;;17.81;100.00;95857.03;5046943;28;24534;-76
2023/07/16 02:34:59;;;;;;;1.63;1.05;;;;;;;17.67;100.00;95854.81;5050808;28;24462;-77
2023/07/16 02:37:26;;;;;;;2.03;1.00;;;;;;;17.43;100.00;95844.75;5051807;28;24443;-77
2023/07/16 02:39:53;;;;;;;8.75;1.00;;;;;;;17.46;100.00;95844.44;5045967;28;24431;-77
2023/07/16 02:42:20;;;;;;;2.92;1.23;;;;;;;17.32;100.00;95826.53;5048612;28;24493;-77
2023/07/16 02:44:46;;;;;;;3.23;1.00;;;;;;;17.23;100.00;95814.25;5050346;28;24438;-76
2023/07/16 02:47:13;;;;;;;4.25;1.30;;;;;;;17.12;100.00;95826.50;5047959;28;24462;-76
2023/07/16 02:49:40;;;;;;;2.05;1.20;;;;;;;17.09;100.00;95841.63;5041161;28;24443;-77
2023/07/16 02:52:07;;;;;;;5.20;1.30;;;;;;;17.26;100.00;95842.78;5042395;28;24441;-77
2023/07/16 02:54:35;;;;;;;1.88;1.00;;;;;;;17.36;100.00;95835.78;5039789;28;24534;-77
2023/07/16 02:57:04;;;;;;;3.35;1.17;;;;;;;17.17;100.00;95844.44;5043112;28;24512;-78
2023/07/16 02:59:30;;;;;;;2.70;1.50;;;;;;;17.02;100.00;95845.75;5043214;28;24793;-77
2023/07/16 03:01:57;;;;;;;3.50;1.40;;;;;;;17.12;100.00;95862.31;5049937;28;24431;-77
2023/07/16 03:04:23;;;;;;;1.92;1.30;;;;;;;17.16;100.00;95867.13;5045165;28;24447;-77
2023/07/16 03:06:50;;;;;;;2.13;1.42;;;;;;;17.34;100.00;95864.69;5037405;28;24443;-77
2023/07/16 03:09:16;;;;;;;5.13;1.50;;;;;;;17.36;100.00;95878.50;5048086;28;24439;-76
2023/07/16 03:11:42;;;;;;;1.80;1.38;;;;;;;17.27;100.00;95855.72;5040968;28;24510;-77
2023/07/16 03:14:10;;;;;;;3.05;1.30;;;;;;;17.24;100.00;95849.94;5049756;28;24463;-77
2023/07/16 03:16:37;;;;;;;1.95;1.20;;;;;;;17.48;100.00;95837.28;5043913;28;25023;-77
2023/07/16 03:19:03;;;;;;;2.90;1.27;;;;;;;17.55;100.00;95838.41;5050418;28;24443;-77
2023/07/16 03:21:30;;;;;;;3.00;1.70;;;;;;;17.62;100.00;95852.59;5050690;28;25135;-76
2023/07/16 03:23:56;;;;;;;3.08;1.40;;;;;;;17.62;100.00;95865.69;5044639;28;24458;-77
2023/07/16 03:26:22;;;;;;;1.97;1.20;;;;;;;17.69;100.00;95849.41;5044205;28;24913;-77
2023/07/16 03:28:49;;;;;;;3.20;1.35;;;;;;;17.75;100.00;95848.88;5043132;28;24821;-77
2023/07/16 03:31:17;;;;;;;4.40;1.20;;;;;;;17.76;100.00;95856.63;5049096;28;25028;-76
2023/07/16 03:33:43;;;;;;;3.22;1.52;;;;;;;17.79;100.00;95871.22;5044252;28;25067;-77
2023/07/16 03:36:09;;;;;;;4.78;1.40;;;;;;;17.68;100.00;95869.53;5050196;28;24431;-76
2023/07/16 03:38:36;;;;;;;1.77;1.20;;;;;;;17.63;100.00;95877.81;5046841;28;24439;-77
2023/07/16 03:41:02;;;;;;;1.77;1.33;;;;;;;17.65;100.00;95885.56;5042292;28;24435;-77
2023/07/16 03:43:29;;;;;;;3.45;1.40;;;;;;;17.68;100.00;95890.50;5045696;28;24447;-77
2023/07/16 03:45:55;;;;;;;2.92;1.33;;;;;;;17.39;100.00;95900.94;5046591;28;24450;-77
2023/07/16 03:48:23;;;;;;;1.87;1.10;;;;;;;17.40;100.00;95919.13;5049263;28;24488;-76
2023/07/16 03:50:49;;;;;;;4.73;1.50;;;;;;;17.41;100.00;95930.44;5047926;28;24438;-77
2023/07/16 03:53:16;;;;;;;3.03;1.45;;;;;;;17.25;100.00;95937.97;5048942;28;24435;-77
2023/07/16 03:55:42;;;;;;;4.07;1.38;;;;;;;17.32;100.00;95941.72;5041818;28;24446;-77
2023/07/16 03:58:09;;;;;;;5.10;1.60;;;;;;;17.36;100.00;95943.94;5048159;28;24436;-76
2023/07/16 04:00:35;;;;;;;3.42;1.20;;;;;;;17.41;100.00;95940.91;5044059;28;24446;-76
2023/07/16 04:03:02;;;;;;;4.25;1.33;;;;;;;17.21;100.00;95926.13;5045333;28;24451;-77
2023/07/16 04:05:29;;;;;;;2.57;1.40;;;;;;;17.13;100.00;95921.53;5044390;28;24432;-77
2023/07/16 04:07:56;;;;;;;2.90;1.47;;;;;;;17.22;100.00;95915.50;5044876;28;24497;-77
2023/07/16 04:10:22;;;;;;;2.70;1.25;;;;;;;17.27;100.00;95909.88;5052287;28;24442;-77
2023/07/16 04:12:49;;;;;;;7.93;1.30;;;;;;;17.35;100.00;95912.63;5039672;28;24443;-77
2023/07/16 04:15:15;;;;;;;2.45;1.20;;;;;;;17.44;100.00;95901.38;5046181;28;24462;-77
2023/07/16 04:17:42;;;;;;;3.33;1.50;;;;;;;17.48;100.00;95904.53;5047682;28;24434;-76
2023/07/16 04:20:09;;;;;;;5.00;1.60;;;;;;;17.45;100.00;95908.25;5047130;28;24485;-78
2023/07/16 04:22:37;;;;;;;2.58;1.40;;;;;;;17.43;100.00;95928.53;5040604;28;24443;-76
2023/07/16 04:25:04;;;;;;;2.00;1.40;;;;;;;17.53;100.00;95939.00;5042218;28;24435;-77
2023/07/16 04:27:31;;;;;;;3.17;1.38;;;;;;;17.55;100.00;95952.81;5042163;28;24527;-77
2023/07/16 04:29:57;;;;;;;2.27;1.30;;;;;;;17.28;100.00;95951.63;5045484;28;24440;-77
2023/07/16 04:32:23;;;;;;;4.65;1.25;;;;;;;17.22;100.00;95956.56;5048623;28;24439;-77
2023/07/16 04:34:50;;;;;;;5.40;1.63;;;;;;;17.04;100.00;95958.97;5043079;28;24872;-77
2023/07/16 04:37:16;;;;;;;3.95;1.50;;;;;;;17.09;100.00;95968.09;5046808;28;24981;-77
2023/07/16 04:39:44;;;;;;;3.30;1.65;;;;;;;17.23;100.00;95979.97;5042690;28;24837;-77
2023/07/16 04:42:10;;;;;;;3.83;1.60;;;;;;;17.13;100.00;95981.72;5047896;28;24450;-77
2023/07/16 04:44:37;;;;;;;4.97;1.63;;;;;;;17.00;100.00;95978.50;5047432;28;24436;-77
2023/07/16 04:47:04;;;;;;;4.53;1.35;;;;;;;16.87;100.00;95968.25;5043424;28;24497;-76
2023/07/16 04:49:30;;;;;;;3.00;1.50;;;;;;;16.87;100.00;95969.09;5047770;28;24442;-76
2023/07/16 04:51:57;;;;;;;4.55;1.65;;;;;;;16.99;100.00;95977.69;5047529;28;24439;-77
2023/07/16 04:54:23;;;;;;;4.18;1.75;;;;;;;16.90;100.00;95979.28;5048726;28;24459;-77
2023/07/16 04:56:51;;;;;;;4.40;1.65;;;;;;;16.95;100.00;95986.75;5046909;28;24900;-77
2023/07/16 04:59:17;;;;;;;3.50;1.73;;;;;;;17.02;100.00;95979.19;5042310;28;24498;-77
2023/07/16 05:01:44;;;;;;;4.70;1.67;;;;;;;17.11;100.00;95988.88;5046016;28;24509;-77
2023/07/16 05:04:10;;;;;;;6.45;1.77;;;;;;;17.11;100.00;95988.88;5046550;28;24497;-77
2023/07/16 05:06:37;;;;;;;3.28;1.52;;;;;;;17.23;100.00;95976.53;5039407;28;24810;-77
2023/07/16 05:09:03;;;;;;;4.13;1.48;;;;;;;17.29;100.00;95989.09;5046497;28;24435;-76
2023/07/16 05:11:30;;;;;;;2.92;1.50;;;;;;;17.39;100.00;95969.00;5043547;28;24450;-77
2023/07/16 05:13:57;;;;;;;3.30;1.40;;;;;;;17.41;100.00;95986.25;5044486;28;24783;-77
2023/07/16 05:16:24;;;;;;;6.60;1.88;;;;;;;17.42;100.00;95984.44;5046838;28;25003;-77
2023/07/16 05:18:50;;;;;;;4.40;1.58;;;;;;;17.55;100.00;95989.47;5049782;28;24447;-76
2023/07/16 05:21:17;;;;;;;4.50;1.70;;;;;;;17.64;100.00;95999.13;5047832;28;24431;-77
2023/07/16 05:23:43;;;;;;;4.43;1.70;;;;;;;17.57;100.00;95996.19;5043344;28;24485;-76
2023/07/16 05:26:10;;;;;;;5.35;1.83;;;;;;;17.56;100.00;96001.59;5049916;28;24443;-77
2023/07/16 05:28:36;;;;;;;3.28;1.55;;;;;;;17.54;100.00;95990.41;5050375;28;24844;-77
2023/07/16 05:31:04;;;;;;;4.63;2.00;;;;;;;17.55;100.00;95994.69;5046756;28;24442;-77
2023/07/16 05:33:30;;;;;;;4.95;1.50;;;;;;;17.46;100.00;95990.25;5045269;28;25013;-76
2023/07/16 05:35:57;;;;;;;5.40;1.83;;;;;;;17.50;100.00;95994.25;5051243;28;25298;-76
2023/07/16 05:38:23;;;;;;;6.43;2.15;;;;;;;17.34;100.00;95987.72;5045984;28;24957;-76
2023/07/16 05:40:50;;;;;;;2.80;1.70;;;;;;;17.44;100.00;95994.81;5051007;28;24889;-76
2023/07/16 05:43:17;;;;;;;3.88;1.65;;;;;;;17.45;100.00;96005.13;5047256;28;24512;-77
2023/07/16 05:45:43;;;;;;;4.10;1.60;;;;;;;17.52;100.00;96011.50;5042332;28;24490;-77
2023/07/16 05:48:11;;;;;;;6.18;2.08;;;;;;;17.50;100.00;96010.81;5050839;28;24443;-77
2023/07/16 05:50:38;;;;;;;6.57;1.92;;;;;;;17.38;100.00;96002.22;5039635;28;24481;-77
2023/07/16 05:53:04;;;;;;;5.68;2.08;;;;;;;17.41;100.00;95994.09;5050527;28;24435;-77
2023/07/16 05:55:30;;;;;;;5.00;1.98;;;;;;;17.20;100.00;95989.88;5051777;28;24462;-77
2023/07/16 05:57:57;;;;;;;7.43;1.98;;;;;;;17.22;100.00;95994.03;5048742;28;24825;-77
2023/07/16 06:00:24;;;;;;;2.95;1.60;;;;;;;17.43;100.00;96001.84;5040266;28;24439;-76
2023/07/16 06:02:50;;;;;;;6.10;1.92;;;;;;;17.30;100.00;95998.59;5051435;28;24454;-77
2023/07/16 06:05:18;;;;;;;4.23;1.80;;;;;;;17.37;100.00;96008.41;5045966;28;24431;-76
2023/07/16 06:07:45;;;;;;;5.72;1.80;;;;;;;17.47;100.00;96012.88;5046690;28;24439;-77
2023/07/16 06:10:11;;;;;;;7.50;1.87;;;;;;;17.46;100.00;96008.56;5051571;28;25064;-77
2023/07/16 06:12:38;;;;;;;4.80;1.80;;;;;;;17.44;100.00;96015.75;5050549;28;24504;-77
2023/07/16 06:15:05;;;;;;;4.63;1.77;;;;;;;17.50;100.00;96017.81;5044421;28;24509;-78
2023/07/16 06:17:31;;;;;;;4.97;1.70;;;;;;;17.64;100.00;96010.41;5043412;28;24447;-76
2023/07/16 06:19:58;;;;;;;7.03;1.90;;;;;;;17.75;100.00;96016.53;5039115;28;24436;-78
2023/07/16 06:22:25;;;;;;;5.78;1.63;;;;;;;17.63;100.00;96018.44;5040079;28;24436;-78
2023/07/16 06:24:52;;;;;;;3.83;1.48;;;;;;;17.67;100.00;96018.00;5047748;28;24432;-79
2023/07/16 06:27:18;;;;;;;6.68;1.90;;;;;;;17.69;100.00;96020.53;5052557;28;24442;-78
2023/07/16 06:29:45;;;;;;;3.65;1.67;;;;;;;17.78;100.00;96021.53;5050324;28;24440;-79
2023/07/16 06:32:11;;;;;;;8.17;1.73;;;;;;;17.58;100.00;96021.44;5051912;28;24443;-79
2023/07/16 06:34:38;;;;;;;4.85;1.67;;;;;;;17.59;100.00;96015.25;5051265;28;25018;-79
2023/07/16 06:37:05;;;;;;;3.17;1.42;;;;;;;17.68;100.00;96016.22;5051243;28;25039;-79
2023/07/16 06:39:32;;;;;;;5.00;1.60;;;;;;;17.65;100.00;96017.34;5044565;28;24493;-78
2023/07/16 06:41:59;;;;;;;2.60;1.30;;;;;;;17.75;100.00;96030.47;5044872;28;24436;-79
2023/07/16 06:44:25;;;;;;;4.57;1.65;;;;;;;17.62;100.00;96030.69;5052759;28;24992;-78
2023/07/16 06:46:52;;;;;;;2.90;1.42;;;;;;;17.65;100.00;96027.81;5047211;28;24446;-78
2023/07/16 06:49:19;;;;;;;3.10;1.60;;;;;;;17.64;100.00;96033.16;5042660;28;24479;-79
2023/07/16 06:51:45;;;;;;;4.65;1.35;;;;;;;17.79;100.00;96038.91;5048342;28;24443;-80
2023/07/16 06:54:12;;;;;;;4.03;1.60;;;;;;;17.79;100.00;96038.91;5045979;28;24447;-76
2023/07/16 06:56:39;;;;;;;5.33;1.50;;;;;;;17.92;100.00;96033.44;5045040;28;24431;-77
2023/07/16 06:59:06;;;;;;;4.60;1.57;;;;;;;18.07;100.00;96026.81;5045841;28;24489;-77
2023/07/16 07:01:32;;;;;;;4.22;1.90;;;;;;;18.29;100.00;96021.31;5048213;28;24439;-78
2023/07/16 07:03:59;;;;;;;4.82;1.50;;;;;;;18.45;100.00;96012.06;5048727;28;24904;-78
2023/07/16 07:06:25;;;;;;;5.13;1.60;;;;;;;18.36;100.00;96016.38;5046899;28;24443;-77
2023/07/16 07:08:52;;;;;;;4.68;1.88;;;;;;;18.30;100.00;96022.97;5053791;28;24439;-77
2023/07/16 07:11:18;;;;;;;3.20;1.60;;;;;;;18.49;100.00;96018.69;5037564;28;24470;-78
2023/07/16 07:13:46;;;;;;;3.30;1.60;;;;;;;18.44;100.00;96011.25;5049827;28;24447;-78
2023/07/16 07:16:12;;;;;;;4.23;1.43;;;;;;;18.52;100.00;96018.41;5035896;28;24447;-78
2023/07/16 07:18:39;;;;;;;6.07;1.67;;;;;;;18.50;100.00;96033.44;5048798;28;24507;-78
2023/07/16 07:21:05;;;;;;;2.97;1.58;;;;;;;18.59;100.00;96035.25;5048475;28;24442;-76
2023/07/16 07:23:32;;;;;;;6.38;1.90;;;;;;;18.28;100.00;96051.13;5046203;28;24440;-76
2023/07/16 07:25:59;;;;;;;3.90;1.75;;;;;;;18.25;100.00;96046.16;5039195;28;24976;-77
2023/07/16 07:28:26;;;;;;;3.50;1.60;;;;;;;18.22;100.00;96049.06;5041505;28;24437;-77
2023/07/16 07:30:54;;;;;;;2.47;1.40;;;;;;;18.02;100.00;96032.47;5045335;28;24435;-77
2023/07/16 07:33:20;;;;;;;5.28;1.80;;;;;;;18.30;100.00;96036.09;5040662;28;24428;-76
2023/07/16 07:35:47;;;;;;;4.03;1.70;;;;;;;18.50;100.00;96042.19;5040280;28;24545;-78
2023/07/16 07:38:13;;;;;;;3.10;1.65;;;;;;;18.46;100.00;96047.81;5050819;28;24427;-77
2023/07/16 07:40:40;;;;;;;3.55;1.83;;;;;;;18.43;100.00;96043.69;5047333;28;24442;-77
2023/07/16 07:43:06;;;;;;;4.20;1.90;;;;;;;18.43;100.00;96048.09;5051779;28;24442;-79
2023/07/16 07:45:32;;;;;;;7.25;2.25;;;;;;;18.24;100.00;96060.22;5063772;23;24495;-73
2023/07/16 07:48:00;;;;;;;5.45;2.05;;;;;;;18.32;100.00;96054.31;5040494;28;24439;-73
2023/07/16 07:50:29;;;;;;;4.00;1.50;;;;;;;18.27;100.00;96067.00;5037306;28;24838;-74
2023/07/16 07:52:55;;;;;;;7.38;2.05;;;;;;;18.18;100.00;96065.19;5049616;28;24482;-73
2023/07/16 07:55:21;;;;;;;3.38;1.58;;;;;;;18.18;100.00;96067.81;5044330;28;24825;-73
2023/07/16 07:57:48;;;;;;;4.13;1.90;;;;;;;18.37;100.00;96073.06;5034347;28;25017;-73
2023/07/16 08:00:15;;;;;;;4.70;1.77;;;;;;;18.40;100.00;96072.00;5029824;28;24432;-73
2023/07/16 08:02:41;;;;;;;3.78;1.77;;;;;;;18.26;100.00;96054.84;5030098;28;24435;-75
2023/07/16 08:05:09;;;;;;;3.08;1.55;;;;;;;18.19;100.00;96048.50;5025819;28;24447;-75
2023/07/16 08:07:36;;;;;;;2.20;1.50;;;;;;;18.37;100.00;96047.69;5025242;28;24437;-74
2023/07/16 08:10:02;;;;;;;7.05;1.73;;;;;;;18.21;100.00;96052.66;5029674;28;24440;-76
2023/07/16 08:12:30;;;;;;;3.95;1.80;;;;;;;18.33;100.00;96053.34;5033798;28;24467;-75
2023/07/16 08:14:57;;;;;;;3.15;1.30;;;;;;;18.55;100.00;96037.34;5031611;28;24515;-75
2023/07/16 08:17:23;;;;;;;2.83;1.48;;;;;;;18.71;100.00;96031.53;5027828;28;24491;-75
2023/07/16 08:19:49;;;;;;;3.25;1.65;;;;;;;18.93;100.00;96027.78;5031290;28;24440;-74
2023/07/16 08:22:17;;;;;;;3.97;1.92;;;;;;;18.98;100.00;96022.09;5030537;28;24995;-74
2023/07/16 08:24:44;;;;;;;3.88;1.58;;;;;;;19.09;100.00;96030.63;5031380;28;24439;-76
2023/07/16 08:27:10;;;;;;;4.38;2.00;;;;;;;18.98;100.00;96040.47;5027474;28;24825;-75
2023/07/16 08:29:37;;;;;;;5.30;2.20;;;;;;;19.05;100.00;96039.75;5020037;28;24443;-74
2023/07/16 08:32:04;;;;;;;5.37;2.13;;;;;;;19.15;100.00;96036.31;5025921;28;24448;-76
2023/07/16 08:34:30;;;;;;;5.15;2.25;;;;;;;19.17;100.00;96036.97;5030232;28;24459;-76
2023/07/16 08:36:57;;;;;;;5.63;1.80;;;;;;;19.42;100.00;96044.22;5027490;28;24996;-79
2023/07/16 08:39:24;;;;;;;3.33;1.80;;;;;;;19.51;100.00;96040.75;5027927;28;24490;-75
2023/07/16 08:41:51;;;;;;;4.72;1.70;;;;;;;19.73;100.00;96042.19;5030875;28;24438;-76
2023/07/16 08:44:18;;;;;;;4.38;1.75;;;;;;;19.80;100.00;96058.19;5033675;28;24841;-77
2023/07/16 08:46:45;;;;;;;2.88;1.40;;;;;;;19.86;100.00;96067.28;5029880;28;24443;-77
2023/07/16 08:49:12;;;;;;;4.27;1.73;;;;;;;19.83;100.00;96057.91;5029126;28;24442;-76
2023/07/16 08:51:40;;;;;;;4.35;1.45;;;;;;;20.08;100.00;96064.25;5032571;28;24427;-76
2023/07/16 08:54:07;;;;;;;3.45;1.58;;;;;;;20.03;100.00;96051.56;5038942;28;24439;-75
2023/07/16 08:56:35;;;;;;;4.35;1.70;;;;;;;19.85;100.00;96055.97;5038753;28;25008;-75
2023/07/16 08:59:01;;;;;;;2.80;1.63;;;;;;;19.79;100.00;96051.28;5033012;28;25034;-76
2023/07/16 09:01:28;;;;;;;3.88;1.70;;;;;;;19.81;100.00;96047.53;5039188;28;24435;-76
2023/07/16 09:03:55;;;;;;;3.00;1.80;;;;;;;19.83;100.00;96050.00;5036154;28;24440;-76
2023/07/16 09:06:21;;;;;;;3.17;1.58;;;;;;;19.65;100.00;96054.38;5038357;28;24482;-75
2023/07/16 09:08:48;;;;;;;4.10;1.48;;;;;;;19.55;100.00;96057.88;5035147;28;24913;-75
2023/07/16 09:11:15;;;;;;;2.40;1.25;;;;;;;20.12;100.00;96052.47;5041002;28;24442;-75
2023/07/16 09:13:46;;;;;;;3.23;1.60;;;;;;;20.78;100.00;96033.72;5035287;28;24440;-75
2023/07/16 09:16:15;;;;;;;2.03;1.48;;;;;;;21.10;100.00;96028.81;5029280;28;24463;-75
2023/07/16 09:18:42;;;;;;;7.00;2.05;;;;;;;21.17;100.00;96035.97;5033397;28;24438;-76
2023/07/16 09:21:09;;;;;;;3.28;1.60;;;;;;;20.92;100.00;96044.69;5033875;28;25046;-77
2023/07/16 09:23:36;;;;;;;2.50;1.40;;;;;;;21.05;100.00;96041.63;5032712;28;24444;-73
2023/07/16 09:26:04;;;;;;;4.90;1.40;;;;;;;21.71;100.00;96039.22;5033320;28;25099;-75
2023/07/16 09:28:31;;;;;;;4.25;1.80;;;;;;;21.77;100.00;96037.78;5036140;28;24531;-74
2023/07/16 09:31:04;;;;;;;2.50;1.60;;;;;;;21.92;100.00;96044.09;5032043;28;24439;-74
2023/07/16 09:33:32;;;;;;;4.60;1.42;;;;;;;22.19;100.00;96053.59;5036345;28;24431;-74
2023/07/16 09:35:59;;;;;;;5.30;1.52;;;;;;;21.96;100.00;96036.69;5033098;28;24463;-76
2023/07/16 09:38:27;;;;;;;6.75;1.40;;;;;;;22.28;100.00;96041.22;5034701;28;24831;-74
2023/07/16 09:40:56;;;;;;;2.57;1.60;;;;;;;22.37;98.58;96040.28;5033095;28;24462;-75
2023/07/16 09:43:23;;;;;;;2.53;1.55;;;;;;;22.54;97.71;96042.91;5032749;28;25056;-74
2023/07/16 09:45:49;;;;;;;3.42;1.58;;;;;;;22.27;94.80;96044.88;5023247;28;25310;-74
2023/07/16 09:48:17;;;;;;;4.03;1.67;;;;;;;22.51;95.95;96045.88;5013309;28;24806;-75
2023/07/16 09:50:51;;;;;;;2.42;1.50;;;;;;;22.56;94.35;96039.13;5011666;28;24803;-75
2023/07/16 09:53:20;;;;;;;2.70;1.50;;;;;;;22.84;92.02;96057.28;5011040;28;24528;-75
2023/07/16 09:55:47;;;;;;;3.03;1.47;;;;;;;23.11;95.06;96042.97;5003325;28;24830;-75
2023/07/16 09:58:15;;;;;;;2.73;1.50;;;;;;;23.29;90.68;96040.13;5012650;28;24529;-74
2023/07/16 10:00:43;;;;;;;5.50;1.73;;;;;;;23.30;91.87;96045.22;5008642;28;24452;-74
2023/07/16 10:03:09;;;;;;;3.25;1.50;;;;;;;23.62;91.03;96049.63;5006239;28;24440;-75
2023/07/16 10:05:38;;;;;;;3.70;1.90;;;;;;;23.79;88.47;96042.47;5019275;28;24486;-75
2023/07/16 10:08:06;;;;;;;4.20;1.60;;;;;;;23.48;85.96;96045.03;5015876;28;24448;-75
2023/07/16 10:10:40;;;;;;;2.60;1.60;;;;;;;23.27;88.53;96047.38;5012866;28;24440;-75
2023/07/16 10:13:08;;;;;;;2.70;1.50;;;;;;;23.51;89.27;96041.19;5012496;28;24440;-75
2023/07/16 10:15:34;;;;;;;2.22;1.40;;;;;;;23.70;87.56;96043.50;5016533;28;24474;-75
2023/07/16 10:18:01;;;;;;;2.97;1.55;;;;;;;24.15;84.41;96050.72;5018001;28;24444;-74
2023/07/16 10:20:32;;;;;;;3.53;1.50;;;;;;;24.22;82.12;96048.22;5014829;28;24790;-77
2023/07/16 10:23:10;;;;;;;4.10;1.70;;;;;;;23.89;69.15;96043.09;5012217;28;24455;-75
2023/07/16 10:25:36;;;;;;;2.78;1.52;;;;;;;24.09;66.29;96038.19;5008356;28;24510;-74
2023/07/16 10:28:03;;;;;;;4.40;1.83;;;;;;;23.99;64.55;96031.44;5017154;28;25000;-74
2023/07/16 10:30:30;;;;;;;3.45;1.70;;;;;;;24.20;66.27;96036.97;5002952;28;24436;-74
2023/07/16 10:32:57;;;;;;;2.65;1.45;;;;;;;24.10;62.59;96036.34;5010785;28;24440;-74
2023/07/16 10:35:24;;;;;;;4.28;1.70;;;;;;;24.25;65.08;96031.16;5011107;28;25067;-74
2023/07/16 10:37:51;;;;;;;2.70;1.50;;;;;;;24.62;62.79;96025.97;5010743;28;25020;-74
2023/07/16 10:40:18;;;;;;;2.60;1.23;;;;;;;24.26;62.69;96023.03;5011694;28;24436;-75
2023/07/16 10:42:46;;;;;;;3.30;1.73;;;;;;;24.12;63.47;96023.78;5005402;28;24436;-75
2023/07/16 10:45:13;;;;;;;2.13;1.50;;;;;;;24.36;64.82;96028.09;5014400;28;24525;-75
2023/07/16 10:47:51;;;;;;;3.28;2.03;;;;;;;24.57;60.98;96025.66;5031349;28;24439;-75
2023/07/16 10:50:20;;;;;;;4.38;1.65;;;;;;;24.31;61.80;96025.16;5027990;28;24536;-75
2023/07/16 10:52:46;;;;;;;3.43;1.50;;;;;;;24.37;62.26;96014.69;5024781;28;24801;-75
2023/07/16 10:55:13;;;;;;;2.20;1.40;;;;;;;23.74;64.47;96025.47;5035677;28;25027;-75
2023/07/16 10:57:41;;;;;;;6.25;1.67;;;;;;;23.87;64.07;96021.25;5033332;28;24825;-75
2023/07/16 11:00:12;;;;;;;2.58;1.50;;;;;;;24.06;62.80;96029.75;5031829;28;24509;-75
2023/07/16 11:02:40;;;;;;;3.00;1.90;;;;;;;23.70;68.60;96017.06;5030391;28;25047;-75
2023/07/16 11:05:11;;;;;;;3.50;1.40;;;;;;;23.89;62.90;96024.56;5034442;28;24436;-75
2023/07/16 11:07:37;;;;;;;2.95;1.55;;;;;;;24.19;63.66;96019.44;5035056;28;24428;-75
2023/07/16 11:10:04;;;;;;;9.88;1.98;;;;;;;23.75;65.71;96027.13;5030342;28;24432;-75
2023/07/16 11:12:30;;;;;;;5.38;2.63;;;;;;;24.22;61.21;96020.94;5037816;28;24463;-75
2023/07/16 11:14:58;;;;;;;2.88;1.50;;;;;;;24.52;60.11;96017.44;5024461;28;24451;-75
2023/07/16 11:17:25;;;;;;;3.97;1.90;;;;;;;24.78;59.78;96010.94;5035673;28;24459;-74
2023/07/16 11:19:54;;;;;;;3.43;1.53;;;;;;;24.92;61.15;96019.91;5034224;28;24431;-74
2023/07/16 11:22:25;;;;;;;9.20;1.70;;;;;;;24.91;59.65;96020.94;5028008;28;24436;-75
2023/07/16 11:24:51;;;;;;;4.05;1.70;;;;;;;24.72;60.46;96025.72;5037505;28;24441;-75
2023/07/16 11:27:19;;;;;;;9.20;2.22;;;;;;;25.06;60.59;96016.47;5025239;28;25051;-74